sensor_id;sensor_type;location;lat;lon;timestamp;temperature;humidity
68924;DHT22;55961;52.156;20.942;2023-12-28T00:01:37;0.00;97.50
68924;DHT22;55961;52.156;20.942;2023-12-28T00:04:04;0.10;97.30
68924;DHT22;55961;52.156;20.942;2023-12-28T00:06:29;0.10;97.20
68924;DHT22;55961;52.156;20.942;2023-12-28T00:08:55;0.10;97.20
68924;DHT22;55961;52.156;20.942;2023-12-28T00:11:21;0.10;97.10
68924;DHT22;55961;52.156;20.942;2023-12-28T00:13:47;0.10;97.00
68924;DHT22;55961;52.156;20.942;2023-12-28T00:16:13;0.10;96.70
68924;DHT22;55961;52.156;20.942;2023-12-28T00:18:40;0.10;96.80
68924;DHT22;55961;52.156;20.942;2023-12-28T00:21:06;0.10;96.80
68924;DHT22;55961;52.156;20.942;2023-12-28T00:23:32;0.10;96.90
68924;DHT22;55961;52.156;20.942;2023-12-28T00:25:58;0.10;96.80
68924;DHT22;55961;52.156;20.942;2023-12-28T00:28:24;0.10;96.90
68924;DHT22;55961;52.156;20.942;2023-12-28T00:30:50;0.10;96.80
68924;DHT22;55961;52.156;20.942;2023-12-28T00:33:16;0.10;96.80
68924;DHT22;55961;52.156;20.942;2023-12-28T00:35:42;0.10;96.90
68924;DHT22;55961;52.156;20.942;2023-12-28T00:38:08;0.10;96.80
68924;DHT22;55961;52.156;20.942;2023-12-28T00:40:34;0.10;96.90
68924;DHT22;55961;52.156;20.942;2023-12-28T00:43:00;0.10;96.70
68924;DHT22;55961;52.156;20.942;2023-12-28T00:45:26;0.00;96.90
68924;DHT22;55961;52.156;20.942;2023-12-28T00:47:52;0.10;97.20
68924;DHT22;55961;52.156;20.942;2023-12-28T00:50:21;0.00;97.40
68924;DHT22;55961;52.156;20.942;2023-12-28T00:52:46;0.00;98.10
68924;DHT22;55961;52.156;20.942;2023-12-28T00:55:13;0.00;98.10
68924;DHT22;55961;52.156;20.942;2023-12-28T00:57:39;0.00;98.10
68924;DHT22;55961;52.156;20.942;2023-12-28T01:00:05;0.00;98.10
68924;DHT22;55961;52.156;20.942;2023-12-28T01:02:31;0.00;98.00
68924;DHT22;55961;52.156;20.942;2023-12-28T01:04:57;0.00;98.10
68924;DHT22;55961;52.156;20.942;2023-12-28T01:07:23;-0.10;98.00
68924;DHT22;55961;52.156;20.942;2023-12-28T01:09:49;-0.10;98.10
68924;DHT22;55961;52.156;20.942;2023-12-28T01:12:15;0.00;98.10
68924;DHT22;55961;52.156;20.942;2023-12-28T01:14:41;-0.10;98.00
68924;DHT22;55961;52.156;20.942;2023-12-28T01:17:07;-0.10;98.10
68924;DHT22;55961;52.156;20.942;2023-12-28T01:19:34;-0.10;98.10
68924;DHT22;55961;52.156;20.942;2023-12-28T01:21:59;-0.10;98.20
68924;DHT22;55961;52.156;20.942;2023-12-28T01:24:25;-0.10;98.00
68924;DHT22;55961;52.156;20.942;2023-12-28T01:26:52;-0.10;98.10
68924;DHT22;55961;52.156;20.942;2023-12-28T01:29:18;-0.10;98.00
68924;DHT22;55961;52.156;20.942;2023-12-28T01:31:44;-0.10;98.10
68924;DHT22;55961;52.156;20.942;2023-12-28T01:34:10;-0.10;98.30
68924;DHT22;55961;52.156;20.942;2023-12-28T01:36:38;-0.10;98.30
68924;DHT22;55961;52.156;20.942;2023-12-28T01:39:07;-0.10;98.20
68924;DHT22;55961;52.156;20.942;2023-12-28T01:41:33;-0.10;98.30
68924;DHT22;55961;52.156;20.942;2023-12-28T01:43:59;-0.10;98.20
68924;DHT22;55961;52.156;20.942;2023-12-28T01:46:25;-0.10;98.20
68924;DHT22;55961;52.156;20.942;2023-12-28T01:48:51;0.00;98.30
68924;DHT22;55961;52.156;20.942;2023-12-28T01:51:17;-0.10;98.50
68924;DHT22;55961;52.156;20.942;2023-12-28T01:53:43;0.00;98.50
68924;DHT22;55961;52.156;20.942;2023-12-28T01:56:11;0.00;98.50
68924;DHT22;55961;52.156;20.942;2023-12-28T01:58:38;0.00;98.60
68924;DHT22;55961;52.156;20.942;2023-12-28T02:01:06;0.00;98.60
68924;DHT22;55961;52.156;20.942;2023-12-28T02:03:32;0.00;98.60
68924;DHT22;55961;52.156;20.942;2023-12-28T02:05:59;0.00;98.60
68924;DHT22;55961;52.156;20.942;2023-12-28T02:08:26;0.00;98.80
68924;DHT22;55961;52.156;20.942;2023-12-28T02:10:52;0.10;98.70
68924;DHT22;55961;52.156;20.942;2023-12-28T02:13:18;0.10;98.70
68924;DHT22;55961;52.156;20.942;2023-12-28T02:15:47;0.10;98.60
68924;DHT22;55961;52.156;20.942;2023-12-28T02:18:21;0.10;98.50
68924;DHT22;55961;52.156;20.942;2023-12-28T02:20:48;0.10;98.40
68924;DHT22;55961;52.156;20.942;2023-12-28T02:23:15;0.10;98.50
68924;DHT22;55961;52.156;20.942;2023-12-28T02:25:41;0.10;98.30
68924;DHT22;55961;52.156;20.942;2023-12-28T02:28:08;0.10;98.20
68924;DHT22;55961;52.156;20.942;2023-12-28T02:30:34;0.10;98.30
68924;DHT22;55961;52.156;20.942;2023-12-28T02:35:32;0.10;98.30
68924;DHT22;55961;52.156;20.942;2023-12-28T02:38:06;0.10;98.20
68924;DHT22;55961;52.156;20.942;2023-12-28T02:40:37;0.20;98.20
68924;DHT22;55961;52.156;20.942;2023-12-28T02:43:06;0.20;98.20
68924;DHT22;55961;52.156;20.942;2023-12-28T02:45:32;0.20;98.10
68924;DHT22;55961;52.156;20.942;2023-12-28T02:47:58;0.20;98.00
68924;DHT22;55961;52.156;20.942;2023-12-28T02:50:24;0.20;97.90
68924;DHT22;55961;52.156;20.942;2023-12-28T02:52:50;0.30;98.00
68924;DHT22;55961;52.156;20.942;2023-12-28T02:55:16;0.30;97.90
68924;DHT22;55961;52.156;20.942;2023-12-28T02:57:44;0.30;97.70
68924;DHT22;55961;52.156;20.942;2023-12-28T03:00:10;0.30;97.80
68924;DHT22;55961;52.156;20.942;2023-12-28T03:02:37;0.30;97.70
68924;DHT22;55961;52.156;20.942;2023-12-28T03:05:07;0.40;97.50
68924;DHT22;55961;52.156;20.942;2023-12-28T03:07:33;0.40;97.40
68924;DHT22;55961;52.156;20.942;2023-12-28T03:10:00;0.40;97.40
68924;DHT22;55961;52.156;20.942;2023-12-28T03:12:27;0.40;97.20
68924;DHT22;55961;52.156;20.942;2023-12-28T03:14:53;0.40;96.90
68924;DHT22;55961;52.156;20.942;2023-12-28T03:17:19;0.40;96.80
68924;DHT22;55961;52.156;20.942;2023-12-28T03:19:45;0.40;96.70
68924;DHT22;55961;52.156;20.942;2023-12-28T03:22:11;0.40;96.50
68924;DHT22;55961;52.156;20.942;2023-12-28T03:24:38;0.40;96.40
68924;DHT22;55961;52.156;20.942;2023-12-28T03:27:04;0.40;96.20
68924;DHT22;55961;52.156;20.942;2023-12-28T03:29:30;0.40;96.10
68924;DHT22;55961;52.156;20.942;2023-12-28T03:31:56;0.40;96.10
68924;DHT22;55961;52.156;20.942;2023-12-28T03:34:23;0.40;95.90
68924;DHT22;55961;52.156;20.942;2023-12-28T03:36:50;0.40;95.90
68924;DHT22;55961;52.156;20.942;2023-12-28T03:39:16;0.30;95.90
68924;DHT22;55961;52.156;20.942;2023-12-28T03:41:42;0.30;95.80
68924;DHT22;55961;52.156;20.942;2023-12-28T03:44:07;0.30;95.70
68924;DHT22;55961;52.156;20.942;2023-12-28T03:46:34;0.30;95.60
68924;DHT22;55961;52.156;20.942;2023-12-28T03:48:59;0.30;95.50
68924;DHT22;55961;52.156;20.942;2023-12-28T03:51:25;0.30;95.50
68924;DHT22;55961;52.156;20.942;2023-12-28T03:53:51;0.30;95.30
68924;DHT22;55961;52.156;20.942;2023-12-28T03:56:25;0.30;95.10
68924;DHT22;55961;52.156;20.942;2023-12-28T03:58:51;0.30;94.90
68924;DHT22;55961;52.156;20.942;2023-12-28T04:01:19;0.30;94.70
68924;DHT22;55961;52.156;20.942;2023-12-28T04:03:45;0.30;94.60
68924;DHT22;55961;52.156;20.942;2023-12-28T04:06:12;0.30;94.50
68924;DHT22;55961;52.156;20.942;2023-12-28T04:08:39;0.30;94.50
68924;DHT22;55961;52.156;20.942;2023-12-28T04:11:05;0.30;94.30
68924;DHT22;55961;52.156;20.942;2023-12-28T04:13:33;0.30;94.10
68924;DHT22;55961;52.156;20.942;2023-12-28T04:15:59;0.30;93.90
68924;DHT22;55961;52.156;20.942;2023-12-28T04:18:25;0.30;93.70
68924;DHT22;55961;52.156;20.942;2023-12-28T04:20:51;0.30;93.60
68924;DHT22;55961;52.156;20.942;2023-12-28T04:23:17;0.30;93.50
68924;DHT22;55961;52.156;20.942;2023-12-28T04:25:43;0.30;93.40
68924;DHT22;55961;52.156;20.942;2023-12-28T04:28:09;0.30;93.40
68924;DHT22;55961;52.156;20.942;2023-12-28T04:30:36;0.30;93.40
68924;DHT22;55961;52.156;20.942;2023-12-28T04:33:02;0.30;93.40
68924;DHT22;55961;52.156;20.942;2023-12-28T04:35:28;0.30;93.20
68924;DHT22;55961;52.156;20.942;2023-12-28T04:37:54;0.30;93.20
68924;DHT22;55961;52.156;20.942;2023-12-28T04:40:20;0.20;93.30
68924;DHT22;55961;52.156;20.942;2023-12-28T04:42:46;0.20;93.20
68924;DHT22;55961;52.156;20.942;2023-12-28T04:45:13;0.20;93.10
68924;DHT22;55961;52.156;20.942;2023-12-28T04:47:39;0.20;93.00
68924;DHT22;55961;52.156;20.942;2023-12-28T04:50:06;0.20;92.90
68924;DHT22;55961;52.156;20.942;2023-12-28T04:52:33;0.20;92.90
68924;DHT22;55961;52.156;20.942;2023-12-28T04:54:59;0.20;92.80
68924;DHT22;55961;52.156;20.942;2023-12-28T04:57:25;0.20;92.90
68924;DHT22;55961;52.156;20.942;2023-12-28T04:59:52;0.20;92.70
68924;DHT22;55961;52.156;20.942;2023-12-28T05:02:18;0.20;92.70
68924;DHT22;55961;52.156;20.942;2023-12-28T05:04:44;0.20;92.80
68924;DHT22;55961;52.156;20.942;2023-12-28T05:07:10;0.10;92.70
68924;DHT22;55961;52.156;20.942;2023-12-28T05:09:36;0.10;92.80
68924;DHT22;55961;52.156;20.942;2023-12-28T05:12:02;0.10;92.80
68924;DHT22;55961;52.156;20.942;2023-12-28T05:14:28;0.10;92.70
68924;DHT22;55961;52.156;20.942;2023-12-28T05:16:54;0.10;92.70
68924;DHT22;55961;52.156;20.942;2023-12-28T05:19:20;0.10;92.80
68924;DHT22;55961;52.156;20.942;2023-12-28T05:21:46;0.10;92.70
68924;DHT22;55961;52.156;20.942;2023-12-28T05:24:13;0.10;92.70
68924;DHT22;55961;52.156;20.942;2023-12-28T05:26:39;0.10;92.90
68924;DHT22;55961;52.156;20.942;2023-12-28T05:29:05;0.10;92.70
68924;DHT22;55961;52.156;20.942;2023-12-28T05:31:31;0.10;92.90
68924;DHT22;55961;52.156;20.942;2023-12-28T05:33:57;0.00;92.80
68924;DHT22;55961;52.156;20.942;2023-12-28T05:36:24;0.10;92.80
68924;DHT22;55961;52.156;20.942;2023-12-28T05:38:50;0.00;92.90
68924;DHT22;55961;52.156;20.942;2023-12-28T05:41:17;0.00;92.80
68924;DHT22;55961;52.156;20.942;2023-12-28T05:43:43;0.00;92.80
68924;DHT22;55961;52.156;20.942;2023-12-28T05:46:09;0.10;92.80
68924;DHT22;55961;52.156;20.942;2023-12-28T05:48:35;0.10;92.80
68924;DHT22;55961;52.156;20.942;2023-12-28T05:51:01;0.10;92.80
68924;DHT22;55961;52.156;20.942;2023-12-28T05:53:27;0.10;92.80
68924;DHT22;55961;52.156;20.942;2023-12-28T05:55:54;0.10;92.80
68924;DHT22;55961;52.156;20.942;2023-12-28T05:58:20;0.10;92.80
68924;DHT22;55961;52.156;20.942;2023-12-28T06:00:46;0.10;92.80
68924;DHT22;55961;52.156;20.942;2023-12-28T06:03:16;0.10;92.70
68924;DHT22;55961;52.156;20.942;2023-12-28T06:05:42;0.10;92.80
68924;DHT22;55961;52.156;20.942;2023-12-28T06:08:08;0.20;92.70
68924;DHT22;55961;52.156;20.942;2023-12-28T06:10:34;0.20;92.60
68924;DHT22;55961;52.156;20.942;2023-12-28T06:13:01;0.20;92.50
68924;DHT22;55961;52.156;20.942;2023-12-28T06:15:27;0.20;92.40
68924;DHT22;55961;52.156;20.942;2023-12-28T06:17:52;0.20;92.40
68924;DHT22;55961;52.156;20.942;2023-12-28T06:20:19;0.20;92.40
68924;DHT22;55961;52.156;20.942;2023-12-28T06:22:45;0.30;92.30
68924;DHT22;55961;52.156;20.942;2023-12-28T06:25:14;0.30;92.20
68924;DHT22;55961;52.156;20.942;2023-12-28T06:27:40;0.30;92.30
68924;DHT22;55961;52.156;20.942;2023-12-28T06:30:07;0.30;92.10
68924;DHT22;55961;52.156;20.942;2023-12-28T06:32:33;0.30;92.20
68924;DHT22;55961;52.156;20.942;2023-12-28T06:34:59;0.30;92.10
68924;DHT22;55961;52.156;20.942;2023-12-28T06:37:25;0.30;92.10
68924;DHT22;55961;52.156;20.942;2023-12-28T06:39:51;0.30;92.00
68924;DHT22;55961;52.156;20.942;2023-12-28T06:42:17;0.30;92.10
68924;DHT22;55961;52.156;20.942;2023-12-28T06:44:43;0.30;92.10
68924;DHT22;55961;52.156;20.942;2023-12-28T06:47:09;0.30;92.10
68924;DHT22;55961;52.156;20.942;2023-12-28T06:49:35;0.30;92.00
68924;DHT22;55961;52.156;20.942;2023-12-28T06:52:01;0.30;92.10
68924;DHT22;55961;52.156;20.942;2023-12-28T06:54:27;0.30;92.10
68924;DHT22;55961;52.156;20.942;2023-12-28T06:56:53;0.40;92.20
68924;DHT22;55961;52.156;20.942;2023-12-28T06:59:19;0.40;92.20
68924;DHT22;55961;52.156;20.942;2023-12-28T07:01:45;0.40;92.30
68924;DHT22;55961;52.156;20.942;2023-12-28T07:04:11;0.40;92.30
68924;DHT22;55961;52.156;20.942;2023-12-28T07:06:37;0.40;92.20
68924;DHT22;55961;52.156;20.942;2023-12-28T07:09:03;0.40;92.30
68924;DHT22;55961;52.156;20.942;2023-12-28T07:11:30;0.40;92.30
68924;DHT22;55961;52.156;20.942;2023-12-28T07:13:56;0.40;92.40
68924;DHT22;55961;52.156;20.942;2023-12-28T07:16:22;0.40;92.50
68924;DHT22;55961;52.156;20.942;2023-12-28T07:18:48;0.50;92.50
68924;DHT22;55961;52.156;20.942;2023-12-28T07:21:14;0.50;92.60
68924;DHT22;55961;52.156;20.942;2023-12-28T07:23:40;0.50;92.70
68924;DHT22;55961;52.156;20.942;2023-12-28T07:26:05;0.50;92.80
68924;DHT22;55961;52.156;20.942;2023-12-28T07:28:32;0.50;93.00
68924;DHT22;55961;52.156;20.942;2023-12-28T07:30:57;0.50;93.00
68924;DHT22;55961;52.156;20.942;2023-12-28T07:33:23;0.60;93.30
68924;DHT22;55961;52.156;20.942;2023-12-28T07:35:49;0.60;93.50
68924;DHT22;55961;52.156;20.942;2023-12-28T07:38:15;0.60;93.50
68924;DHT22;55961;52.156;20.942;2023-12-28T07:40:41;0.70;93.70
68924;DHT22;55961;52.156;20.942;2023-12-28T07:43:07;0.70;93.60
68924;DHT22;55961;52.156;20.942;2023-12-28T07:45:34;0.70;93.90
68924;DHT22;55961;52.156;20.942;2023-12-28T07:48:01;0.80;94.00
68924;DHT22;55961;52.156;20.942;2023-12-28T07:50:26;0.90;94.10
68924;DHT22;55961;52.156;20.942;2023-12-28T07:52:53;0.90;94.20
68924;DHT22;55961;52.156;20.942;2023-12-28T07:55:18;1.00;94.30
68924;DHT22;55961;52.156;20.942;2023-12-28T07:57:45;1.00;94.40
68924;DHT22;55961;52.156;20.942;2023-12-28T08:00:11;1.10;94.60
68924;DHT22;55961;52.156;20.942;2023-12-28T08:02:38;1.20;95.00
68924;DHT22;55961;52.156;20.942;2023-12-28T08:05:04;1.30;95.00
68924;DHT22;55961;52.156;20.942;2023-12-28T08:07:31;1.40;94.80
68924;DHT22;55961;52.156;20.942;2023-12-28T08:09:57;1.50;95.00
68924;DHT22;55961;52.156;20.942;2023-12-28T08:12:23;1.60;94.80
68924;DHT22;55961;52.156;20.942;2023-12-28T08:14:50;1.80;94.70
68924;DHT22;55961;52.156;20.942;2023-12-28T08:17:16;1.90;94.60
68924;DHT22;55961;52.156;20.942;2023-12-28T08:19:43;2.00;94.40
68924;DHT22;55961;52.156;20.942;2023-12-28T08:22:09;2.10;94.00
68924;DHT22;55961;52.156;20.942;2023-12-28T08:24:35;2.20;93.50
68924;DHT22;55961;52.156;20.942;2023-12-28T08:27:02;2.30;93.20
68924;DHT22;55961;52.156;20.942;2023-12-28T08:29:28;2.40;93.00
68924;DHT22;55961;52.156;20.942;2023-12-28T08:31:54;2.50;92.40
68924;DHT22;55961;52.156;20.942;2023-12-28T08:34:21;2.60;91.90
68924;DHT22;55961;52.156;20.942;2023-12-28T08:36:47;2.70;91.70
68924;DHT22;55961;52.156;20.942;2023-12-28T08:39:13;2.70;91.80
68924;DHT22;55961;52.156;20.942;2023-12-28T08:41:39;2.80;91.70
68924;DHT22;55961;52.156;20.942;2023-12-28T08:44:05;2.90;91.40
68924;DHT22;55961;52.156;20.942;2023-12-28T08:46:31;2.90;90.80
68924;DHT22;55961;52.156;20.942;2023-12-28T08:48:57;3.00;91.00
68924;DHT22;55961;52.156;20.942;2023-12-28T08:51:23;3.10;90.50
68924;DHT22;55961;52.156;20.942;2023-12-28T08:53:49;3.20;90.40
68924;DHT22;55961;52.156;20.942;2023-12-28T08:56:22;3.30;90.00
68924;DHT22;55961;52.156;20.942;2023-12-28T08:58:48;3.30;89.60
68924;DHT22;55961;52.156;20.942;2023-12-28T09:01:24;3.50;88.80
68924;DHT22;55961;52.156;20.942;2023-12-28T09:03:55;3.60;88.20
68924;DHT22;55961;52.156;20.942;2023-12-28T09:06:22;3.70;87.90
68924;DHT22;55961;52.156;20.942;2023-12-28T09:08:51;3.80;87.20
68924;DHT22;55961;52.156;20.942;2023-12-28T09:11:17;3.90;86.50
68924;DHT22;55961;52.156;20.942;2023-12-28T09:13:43;4.10;85.70
68924;DHT22;55961;52.156;20.942;2023-12-28T09:16:12;4.20;85.30
68924;DHT22;55961;52.156;20.942;2023-12-28T09:18:39;4.30;84.90
68924;DHT22;55961;52.156;20.942;2023-12-28T09:21:06;4.40;84.30
68924;DHT22;55961;52.156;20.942;2023-12-28T09:23:34;4.60;83.60
68924;DHT22;55961;52.156;20.942;2023-12-28T09:26:01;4.70;83.80
68924;DHT22;55961;52.156;20.942;2023-12-28T09:28:29;4.80;82.80
68924;DHT22;55961;52.156;20.942;2023-12-28T09:30:55;4.90;82.10
68924;DHT22;55961;52.156;20.942;2023-12-28T09:33:21;5.00;82.00
68924;DHT22;55961;52.156;20.942;2023-12-28T09:35:47;5.10;80.90
68924;DHT22;55961;52.156;20.942;2023-12-28T09:38:14;5.20;81.40
68924;DHT22;55961;52.156;20.942;2023-12-28T09:40:43;5.40;79.80
68924;DHT22;55961;52.156;20.942;2023-12-28T09:45:40;5.60;80.10
68924;DHT22;55961;52.156;20.942;2023-12-28T09:48:06;5.70;80.50
68924;DHT22;55961;52.156;20.942;2023-12-28T09:50:33;5.80;81.10
68924;DHT22;55961;52.156;20.942;2023-12-28T09:52:59;5.80;81.70
68924;DHT22;55961;52.156;20.942;2023-12-28T09:55:25;5.80;81.90
68924;DHT22;55961;52.156;20.942;2023-12-28T09:57:51;5.90;82.30
68924;DHT22;55961;52.156;20.942;2023-12-28T10:00:17;6.00;81.40
68924;DHT22;55961;52.156;20.942;2023-12-28T10:02:44;6.10;80.70
68924;DHT22;55961;52.156;20.942;2023-12-28T10:05:16;6.10;80.40
68924;DHT22;55961;52.156;20.942;2023-12-28T10:07:43;6.20;79.60
68924;DHT22;55961;52.156;20.942;2023-12-28T10:10:10;6.30;79.50
68924;DHT22;55961;52.156;20.942;2023-12-28T10:12:36;6.40;79.50
68924;DHT22;55961;52.156;20.942;2023-12-28T10:15:06;6.40;78.40
68924;DHT22;55961;52.156;20.942;2023-12-28T10:17:35;6.50;77.70
68924;DHT22;55961;52.156;20.942;2023-12-28T10:20:05;6.50;77.80
68924;DHT22;55961;52.156;20.942;2023-12-28T10:22:38;6.60;77.00
68924;DHT22;55961;52.156;20.942;2023-12-28T10:25:05;6.60;76.50
68924;DHT22;55961;52.156;20.942;2023-12-28T10:27:31;6.70;76.40
68924;DHT22;55961;52.156;20.942;2023-12-28T10:29:57;6.70;76.80
68924;DHT22;55961;52.156;20.942;2023-12-28T10:32:23;6.70;76.70
68924;DHT22;55961;52.156;20.942;2023-12-28T10:34:51;6.80;77.20
68924;DHT22;55961;52.156;20.942;2023-12-28T10:37:20;6.80;77.10
68924;DHT22;55961;52.156;20.942;2023-12-28T10:39:48;6.80;77.40
68924;DHT22;55961;52.156;20.942;2023-12-28T10:42:31;6.90;77.20
68924;DHT22;55961;52.156;20.942;2023-12-28T10:45:10;6.90;77.40
68924;DHT22;55961;52.156;20.942;2023-12-28T10:47:43;6.90;77.50
68924;DHT22;55961;52.156;20.942;2023-12-28T10:50:11;7.00;77.50
68924;DHT22;55961;52.156;20.942;2023-12-28T10:52:37;7.00;77.50
68924;DHT22;55961;52.156;20.942;2023-12-28T10:55:24;7.00;77.50
68924;DHT22;55961;52.156;20.942;2023-12-28T11:01:04;7.00;77.50
68924;DHT22;55961;52.156;20.942;2023-12-28T11:03:37;7.00;77.70
68924;DHT22;55961;52.156;20.942;2023-12-28T11:06:07;7.00;78.00
68924;DHT22;55961;52.156;20.942;2023-12-28T11:08:34;7.00;78.60
68924;DHT22;55961;52.156;20.942;2023-12-28T11:11:02;7.00;79.40
68924;DHT22;55961;52.156;20.942;2023-12-28T11:13:32;7.00;80.10
68924;DHT22;55961;52.156;20.942;2023-12-28T11:15:59;7.00;80.70
68924;DHT22;55961;52.156;20.942;2023-12-28T11:18:26;6.90;81.70
68924;DHT22;55961;52.156;20.942;2023-12-28T11:20:55;6.90;82.70
68924;DHT22;55961;52.156;20.942;2023-12-28T11:23:21;6.90;83.20
68924;DHT22;55961;52.156;20.942;2023-12-28T11:25:47;6.90;83.50
68924;DHT22;55961;52.156;20.942;2023-12-28T11:28:13;6.80;84.00
68924;DHT22;55961;52.156;20.942;2023-12-28T11:30:44;6.80;84.00
68924;DHT22;55961;52.156;20.942;2023-12-28T11:33:12;6.80;84.00
68924;DHT22;55961;52.156;20.942;2023-12-28T11:35:40;6.80;83.70
68924;DHT22;55961;52.156;20.942;2023-12-28T11:38:10;6.80;83.90
68924;DHT22;55961;52.156;20.942;2023-12-28T11:40:47;6.80;84.40
68924;DHT22;55961;52.156;20.942;2023-12-28T11:43:20;6.80;85.50
68924;DHT22;55961;52.156;20.942;2023-12-28T11:45:55;6.70;85.80
68924;DHT22;55961;52.156;20.942;2023-12-28T11:48:25;6.70;86.20
68924;DHT22;55961;52.156;20.942;2023-12-28T11:50:54;6.70;86.50
68924;DHT22;55961;52.156;20.942;2023-12-28T11:53:21;6.60;87.10
68924;DHT22;55961;52.156;20.942;2023-12-28T11:55:47;6.60;87.80
68924;DHT22;55961;52.156;20.942;2023-12-28T11:58:13;6.60;88.50
68924;DHT22;55961;52.156;20.942;2023-12-28T12:00:40;6.60;89.10
68924;DHT22;55961;52.156;20.942;2023-12-28T12:03:06;6.60;90.30
68924;DHT22;55961;52.156;20.942;2023-12-28T12:05:35;6.50;90.80
68924;DHT22;55961;52.156;20.942;2023-12-28T12:08:01;6.50;91.80
68924;DHT22;55961;52.156;20.942;2023-12-28T12:10:27;6.50;92.30
68924;DHT22;55961;52.156;20.942;2023-12-28T12:12:53;6.50;92.60
68924;DHT22;55961;52.156;20.942;2023-12-28T12:15:19;6.50;93.00
68924;DHT22;55961;52.156;20.942;2023-12-28T12:17:45;6.40;93.30
68924;DHT22;55961;52.156;20.942;2023-12-28T12:20:11;6.40;93.50
68924;DHT22;55961;52.156;20.942;2023-12-28T12:22:37;6.40;93.80
68924;DHT22;55961;52.156;20.942;2023-12-28T12:25:06;6.40;93.50
68924;DHT22;55961;52.156;20.942;2023-12-28T12:27:35;6.40;93.30
68924;DHT22;55961;52.156;20.942;2023-12-28T12:30:01;6.40;93.00
68924;DHT22;55961;52.156;20.942;2023-12-28T12:32:29;6.40;93.00
68924;DHT22;55961;52.156;20.942;2023-12-28T12:34:55;6.50;92.40
68924;DHT22;55961;52.156;20.942;2023-12-28T12:37:21;6.50;91.60
68924;DHT22;55961;52.156;20.942;2023-12-28T12:39:47;6.50;91.00
68924;DHT22;55961;52.156;20.942;2023-12-28T12:42:14;6.60;90.40
68924;DHT22;55961;52.156;20.942;2023-12-28T12:44:40;6.60;90.30
68924;DHT22;55961;52.156;20.942;2023-12-28T12:47:07;6.60;89.90
68924;DHT22;55961;52.156;20.942;2023-12-28T12:49:33;6.60;89.50
68924;DHT22;55961;52.156;20.942;2023-12-28T12:52:00;6.70;88.80
68924;DHT22;55961;52.156;20.942;2023-12-28T12:54:26;6.70;88.20
68924;DHT22;55961;52.156;20.942;2023-12-28T12:56:53;6.70;88.00
68924;DHT22;55961;52.156;20.942;2023-12-28T12:59:20;6.80;87.40
68924;DHT22;55961;52.156;20.942;2023-12-28T13:01:46;6.80;87.20
68924;DHT22;55961;52.156;20.942;2023-12-28T13:04:16;6.80;87.00
68924;DHT22;55961;52.156;20.942;2023-12-28T13:06:43;6.90;86.50
68924;DHT22;55961;52.156;20.942;2023-12-28T13:09:09;6.90;86.50
68924;DHT22;55961;52.156;20.942;2023-12-28T13:11:37;7.00;86.10
68924;DHT22;55961;52.156;20.942;2023-12-28T13:14:03;7.00;86.10
68924;DHT22;55961;52.156;20.942;2023-12-28T13:16:30;7.00;86.10
68924;DHT22;55961;52.156;20.942;2023-12-28T13:18:56;7.00;86.00
68924;DHT22;55961;52.156;20.942;2023-12-28T13:21:23;7.10;85.60
68924;DHT22;55961;52.156;20.942;2023-12-28T13:23:49;7.10;85.40
68924;DHT22;55961;52.156;20.942;2023-12-28T13:26:15;7.10;84.90
68924;DHT22;55961;52.156;20.942;2023-12-28T13:28:41;7.10;84.70
68924;DHT22;55961;52.156;20.942;2023-12-28T13:31:08;7.10;84.70
68924;DHT22;55961;52.156;20.942;2023-12-28T13:33:34;7.10;84.70
68924;DHT22;55961;52.156;20.942;2023-12-28T13:36:00;7.20;84.80
68924;DHT22;55961;52.156;20.942;2023-12-28T13:38:26;7.10;84.60
68924;DHT22;55961;52.156;20.942;2023-12-28T13:40:53;7.20;84.50
68924;DHT22;55961;52.156;20.942;2023-12-28T13:43:19;7.20;84.60
68924;DHT22;55961;52.156;20.942;2023-12-28T13:45:45;7.20;84.60
68924;DHT22;55961;52.156;20.942;2023-12-28T13:48:10;7.20;84.70
68924;DHT22;55961;52.156;20.942;2023-12-28T13:50:37;7.20;84.70
68924;DHT22;55961;52.156;20.942;2023-12-28T13:53:02;7.30;84.60
68924;DHT22;55961;52.156;20.942;2023-12-28T13:55:32;7.20;84.60
68924;DHT22;55961;52.156;20.942;2023-12-28T13:57:59;7.20;84.50
68924;DHT22;55961;52.156;20.942;2023-12-28T14:00:25;7.20;84.30
68924;DHT22;55961;52.156;20.942;2023-12-28T14:02:51;7.30;84.30
68924;DHT22;55961;52.156;20.942;2023-12-28T14:05:18;7.30;84.30
68924;DHT22;55961;52.156;20.942;2023-12-28T14:07:44;7.30;84.30
68924;DHT22;55961;52.156;20.942;2023-12-28T14:10:11;7.30;84.20
68924;DHT22;55961;52.156;20.942;2023-12-28T14:12:36;7.30;84.20
68924;DHT22;55961;52.156;20.942;2023-12-28T14:15:03;7.30;84.30
68924;DHT22;55961;52.156;20.942;2023-12-28T14:17:29;7.30;84.10
68924;DHT22;55961;52.156;20.942;2023-12-28T14:19:56;7.20;84.00
68924;DHT22;55961;52.156;20.942;2023-12-28T14:22:22;7.30;83.90
68924;DHT22;55961;52.156;20.942;2023-12-28T14:24:48;7.30;83.60
68924;DHT22;55961;52.156;20.942;2023-12-28T14:27:15;7.30;83.70
68924;DHT22;55961;52.156;20.942;2023-12-28T14:29:41;7.30;83.50
68924;DHT22;55961;52.156;20.942;2023-12-28T14:32:07;7.30;83.70
68924;DHT22;55961;52.156;20.942;2023-12-28T14:34:34;7.20;83.60
68924;DHT22;55961;52.156;20.942;2023-12-28T14:37:01;7.20;83.80
68924;DHT22;55961;52.156;20.942;2023-12-28T14:39:28;7.20;83.90
68924;DHT22;55961;52.156;20.942;2023-12-28T14:41:54;7.20;83.90
68924;DHT22;55961;52.156;20.942;2023-12-28T14:44:20;7.20;84.00
68924;DHT22;55961;52.156;20.942;2023-12-28T14:46:46;7.20;84.20
68924;DHT22;55961;52.156;20.942;2023-12-28T14:49:12;7.20;84.10
68924;DHT22;55961;52.156;20.942;2023-12-28T14:51:38;7.20;84.00
68924;DHT22;55961;52.156;20.942;2023-12-28T14:54:05;7.20;84.10
68924;DHT22;55961;52.156;20.942;2023-12-28T14:56:30;7.20;84.00
68924;DHT22;55961;52.156;20.942;2023-12-28T14:58:56;7.20;84.00
68924;DHT22;55961;52.156;20.942;2023-12-28T15:01:23;7.20;84.00
68924;DHT22;55961;52.156;20.942;2023-12-28T15:03:49;7.20;84.00
68924;DHT22;55961;52.156;20.942;2023-12-28T15:06:14;7.20;84.10
68924;DHT22;55961;52.156;20.942;2023-12-28T15:08:42;7.20;84.10
68924;DHT22;55961;52.156;20.942;2023-12-28T15:11:08;7.20;84.10
68924;DHT22;55961;52.156;20.942;2023-12-28T15:13:37;7.20;84.00
68924;DHT22;55961;52.156;20.942;2023-12-28T15:16:03;7.20;83.90
68924;DHT22;55961;52.156;20.942;2023-12-28T15:18:30;7.20;83.90
68924;DHT22;55961;52.156;20.942;2023-12-28T15:20:56;7.20;83.80
68924;DHT22;55961;52.156;20.942;2023-12-28T15:23:23;7.20;83.80
68924;DHT22;55961;52.156;20.942;2023-12-28T15:25:49;7.20;83.40
68924;DHT22;55961;52.156;20.942;2023-12-28T15:28:15;7.20;83.10
68924;DHT22;55961;52.156;20.942;2023-12-28T15:30:41;7.20;83.10
68924;DHT22;55961;52.156;20.942;2023-12-28T15:33:07;7.10;82.80
68924;DHT22;55961;52.156;20.942;2023-12-28T15:35:37;7.10;82.60